Time;durP1;ratioP1;P1;durP2;ratioP2;P2;SDS_P1;SDS_P2;PMS_P1;PMS_P2;Temp;Humidity;BMP_temperature;BMP_pressure;BME280_temperature;BME280_humidity;BME280_pressure;Samples;Min_cycle;Max_cycle;Signal;HPM_P1;HPM_P2
2022/07/13 00:01:14;;;;;;;9.35;6.75;;;22.80;99.90;;;;;;5105550;28;20136;-64
2022/07/13 00:03:39;;;;;;;8.05;6.80;;;22.80;99.90;;;;;;5106138;28;20395;-64
2022/07/13 00:06:05;;;;;;;8.52;7.00;;;22.70;99.90;;;;;;5102199;28;20126;-64
2022/07/13 00:08:31;;;;;;;8.48;7.10;;;22.70;99.90;;;;;;5104905;28;20118;-64
2022/07/13 00:10:56;;;;;;;8.80;6.90;;;22.70;99.90;;;;;;5102411;28;20042;-64
2022/07/13 00:13:22;;;;;;;10.00;7.32;;;22.70;99.90;;;;;;5100138;28;20047;-64
2022/07/13 00:15:48;;;;;;;8.75;6.38;;;22.70;99.90;;;;;;5104769;28;20035;-64
2022/07/13 00:18:14;;;;;;;7.68;6.82;;;22.60;99.90;;;;;;5106583;28;20039;-64
2022/07/13 00:20:39;;;;;;;8.68;6.85;;;22.60;99.90;;;;;;5105233;28;20040;-64
2022/07/13 00:23:05;;;;;;;8.77;6.93;;;22.60;99.90;;;;;;5105089;28;20035;-64
2022/07/13 00:25:30;;;;;;;8.15;6.53;;;22.60;99.90;;;;;;5106526;28;20059;-64
2022/07/13 00:27:56;;;;;;;9.48;7.65;;;22.60;99.90;;;;;;5104825;28;20446;-64
2022/07/13 00:30:22;;;;;;;8.90;6.90;;;22.60;99.90;;;;;;5104913;28;20046;-64
2022/07/13 00:32:47;;;;;;;8.10;7.30;;;22.50;99.90;;;;;;5103625;28;20040;-64
2022/07/13 00:35:13;;;;;;;8.45;6.97;;;22.50;99.90;;;;;;5105464;28;20027;-64
2022/07/13 00:37:39;;;;;;;8.98;6.63;;;22.50;99.90;;;;;;5106601;28;20043;-64
2022/07/13 00:40:05;;;;;;;9.07;7.38;;;22.60;99.90;;;;;;5105563;28;20109;-64
2022/07/13 00:42:30;;;;;;;9.82;7.50;;;22.50;99.90;;;;;;5107029;28;20138;-64
2022/07/13 00:44:56;;;;;;;8.63;6.90;;;22.50;99.90;;;;;;5102426;28;20173;-65
2022/07/13 00:47:22;;;;;;;9.10;7.60;;;22.50;99.90;;;;;;5104283;28;20047;-64
2022/07/13 00:49:48;;;;;;;8.88;7.45;;;22.50;99.90;;;;;;5104018;28;20036;-64
2022/07/13 00:52:15;;;;;;;8.95;7.07;;;22.50;99.90;;;;;;5104075;28;20064;-64
2022/07/13 00:54:43;;;;;;;9.35;7.18;;;22.50;99.90;;;;;;5107710;27;20134;-63
2022/07/13 00:57:15;;;;;;;10.45;7.53;;;22.50;99.90;;;;;;5107722;28;20419;-63
2022/07/13 00:59:41;;;;;;;9.63;7.30;;;22.50;99.90;;;;;;5110239;28;20062;-63
2022/07/13 01:02:06;;;;;;;8.65;7.07;;;22.50;99.90;;;;;;5107356;28;20039;-63
2022/07/13 01:04:32;;;;;;;8.68;7.00;;;22.50;99.90;;;;;;5105665;28;20048;-63
2022/07/13 01:06:58;;;;;;;8.25;6.60;;;22.40;99.90;;;;;;5108347;28;20039;-63
2022/07/13 01:09:25;;;;;;;8.25;6.55;;;22.40;99.90;;;;;;5108020;27;20063;-63
2022/07/13 01:11:52;;;;;;;8.20;6.20;;;22.40;99.90;;;;;;5108739;28;20143;-63
2022/07/13 01:14:18;;;;;;;9.95;6.72;;;22.40;99.90;;;;;;5106242;28;20777;-63
2022/07/13 01:16:44;;;;;;;8.75;6.57;;;22.40;99.90;;;;;;5109717;27;20223;-63
2022/07/13 01:19:12;;;;;;;7.90;6.30;;;22.30;99.90;;;;;;5109254;28;20355;-63
2022/07/13 01:21:44;;;;;;;7.82;6.32;;;22.40;99.90;;;;;;5109510;28;20094;-63
2022/07/13 01:24:11;;;;;;;7.55;6.22;;;22.30;99.90;;;;;;5104415;28;20114;-63
2022/07/13 01:26:38;;;;;;;8.20;6.68;;;22.30;99.90;;;;;;5110263;28;20048;-63
2022/07/13 01:29:04;;;;;;;8.75;6.45;;;22.30;99.90;;;;;;5106213;27;20390;-63
2022/07/13 01:31:38;;;;;;;9.00;6.07;;;22.30;99.90;;;;;;5108882;27;20150;-63
2022/07/13 01:34:05;;;;;;;9.03;6.43;;;22.30;99.90;;;;;;5105444;28;20055;-63
2022/07/13 01:36:31;;;;;;;8.32;6.07;;;22.30;99.90;;;;;;5104801;28;20055;-63
2022/07/13 01:38:57;;;;;;;8.48;6.55;;;22.30;99.90;;;;;;5109773;28;20035;-63
2022/07/13 01:41:25;;;;;;;8.18;6.55;;;22.30;99.90;;;;;;5102704;28;20069;-63
2022/07/13 01:43:50;;;;;;;7.80;6.10;;;22.30;99.90;;;;;;5107612;28;20108;-63
2022/07/13 01:46:16;;;;;;;9.95;6.65;;;22.30;99.90;;;;;;5108352;28;20703;-63
2022/07/13 01:48:42;;;;;;;9.75;6.97;;;22.30;99.90;;;;;;5109612;28;20153;-63
2022/07/13 01:51:07;;;;;;;7.25;6.40;;;22.20;99.90;;;;;;5106041;28;20118;-63
2022/07/13 01:53:33;;;;;;;7.93;6.65;;;22.20;99.90;;;;;;5105127;28;20040;-63
2022/07/13 01:55:59;;;;;;;7.68;6.82;;;22.20;99.90;;;;;;5107578;28;20038;-63
2022/07/13 01:58:26;;;;;;;8.38;6.63;;;22.20;99.90;;;;;;5109218;28;20343;-63
2022/07/13 02:00:52;;;;;;;7.75;6.90;;;22.10;99.90;;;;;;5103245;28;20460;-63
2022/07/13 02:03:18;;;;;;;7.85;6.55;;;22.10;99.90;;;;;;5108336;28;20042;-63
2022/07/13 02:05:43;;;;;;;9.23;6.95;;;22.10;99.90;;;;;;5105927;28;20035;-63
2022/07/13 02:08:09;;;;;;;6.95;5.88;;;22.00;99.90;;;;;;5107084;28;20150;-63
2022/07/13 02:10:34;;;;;;;8.55;6.43;;;22.10;99.90;;;;;;5107915;28;20078;-63
2022/07/13 02:13:03;;;;;;;9.02;6.30;;;22.10;99.90;;;;;;5109675;28;20055;-63
2022/07/13 02:15:29;;;;;;;10.02;6.30;;;22.00;99.90;;;;;;5106576;28;20115;-63
2022/07/13 02:17:54;;;;;;;7.85;6.40;;;22.00;99.90;;;;;;5106513;28;20118;-63
2022/07/13 02:20:20;;;;;;;8.25;5.57;;;22.00;99.90;;;;;;5108266;27;20055;-63
2022/07/13 02:22:46;;;;;;;6.38;5.53;;;22.00;99.90;;;;;;5105548;28;20119;-63
2022/07/13 02:25:15;;;;;;;6.57;5.63;;;22.00;99.90;;;;;;5108463;28;20032;-63
2022/07/13 02:27:42;;;;;;;7.55;5.90;;;22.00;99.90;;;;;;5096744;28;20048;-63
2022/07/13 02:30:09;;;;;;;7.45;5.95;;;22.00;99.90;;;;;;5107596;28;20043;-63
2022/07/13 02:32:34;;;;;;;9.60;5.80;;;22.00;99.90;;;;;;5106733;27;20057;-63
2022/07/13 02:35:00;;;;;;;7.03;5.97;;;22.00;99.90;;;;;;5106995;28;20542;-63
2022/07/13 02:37:25;;;;;;;7.57;6.10;;;22.00;99.90;;;;;;5107505;28;20055;-63
2022/07/13 02:39:53;;;;;;;7.53;6.45;;;22.00;99.90;;;;;;5106704;28;20045;-63
2022/07/13 02:42:19;;;;;;;6.80;5.90;;;22.00;99.90;;;;;;5103050;28;20150;-63
2022/07/13 02:44:44;;;;;;;7.22;6.30;;;22.00;99.90;;;;;;5105546;28;20391;-63
2022/07/13 02:47:10;;;;;;;8.82;6.60;;;22.00;99.90;;;;;;5106832;28;20101;-63
2022/07/13 02:49:35;;;;;;;8.15;6.60;;;21.90;99.90;;;;;;5107744;28;20258;-63
2022/07/13 02:52:01;;;;;;;7.80;6.35;;;21.90;99.90;;;;;;5118708;27;20064;-63
2022/07/13 02:54:26;;;;;;;8.40;6.60;;;21.90;99.90;;;;;;5106249;28;20043;-63
2022/07/13 02:56:52;;;;;;;8.82;6.60;;;21.90;99.90;;;;;;5107186;28;20036;-63
2022/07/13 02:59:17;;;;;;;7.70;5.90;;;21.90;99.90;;;;;;5105964;28;20047;-63
2022/07/13 03:01:43;;;;;;;7.70;6.38;;;21.90;99.90;;;;;;5104758;28;20043;-63
2022/07/13 03:04:09;;;;;;;8.65;5.97;;;21.90;99.90;;;;;;5106539;28;20031;-63
2022/07/13 03:06:34;;;;;;;8.18;6.60;;;21.80;99.90;;;;;;5106921;28;20061;-63
2022/07/13 03:09:00;;;;;;;7.65;6.80;;;21.90;99.90;;;;;;5107645;28;20039;-63
2022/07/13 03:11:25;;;;;;;9.90;6.35;;;21.80;99.90;;;;;;5107703;28;20188;-63
2022/07/13 03:13:51;;;;;;;7.80;6.18;;;21.80;99.90;;;;;;5106909;28;20078;-63
2022/07/13 03:16:16;;;;;;;9.05;5.97;;;21.80;99.90;;;;;;5105145;28;20051;-63
2022/07/13 03:18:42;;;;;;;8.32;6.25;;;21.80;99.90;;;;;;5107849;28;20150;-63
2022/07/13 03:21:08;;;;;;;11.07;6.55;;;21.80;99.90;;;;;;5107088;28;20111;-63
2022/07/13 03:23:35;;;;;;;7.85;5.60;;;21.80;99.90;;;;;;5107910;28;20509;-63
2022/07/13 03:26:01;;;;;;;7.50;6.20;;;21.80;99.90;;;;;;5107897;28;20335;-63
2022/07/13 03:28:26;;;;;;;9.23;5.72;;;21.70;99.90;;;;;;5105906;27;20044;-63
2022/07/13 03:30:52;;;;;;;7.90;6.15;;;21.80;99.90;;;;;;5100688;28;20032;-63
2022/07/13 03:33:17;;;;;;;7.53;5.80;;;21.80;99.90;;;;;;5104996;28;20043;-64
2022/07/13 03:35:43;;;;;;;6.32;5.28;;;21.80;99.90;;;;;;5105748;28;20105;-64
2022/07/13 03:38:08;;;;;;;6.70;5.75;;;21.80;99.90;;;;;;5106680;28;20392;-64
2022/07/13 03:40:34;;;;;;;7.05;5.60;;;21.80;99.90;;;;;;5106955;28;20119;-64
2022/07/13 03:42:59;;;;;;;6.47;5.53;;;21.80;99.90;;;;;;5106662;28;20039;-64
2022/07/13 03:45:25;;;;;;;7.78;5.30;;;21.80;99.90;;;;;;5106874;28;20149;-64
2022/07/13 03:47:51;;;;;;;6.90;5.38;;;21.80;99.90;;;;;;5106768;28;20047;-64
2022/07/13 03:50:16;;;;;;;7.10;5.20;;;21.80;99.90;;;;;;5105475;28;20028;-64
2022/07/13 03:52:42;;;;;;;6.45;5.10;;;21.80;99.90;;;;;;5109054;28;20736;-63
2022/07/13 03:55:11;;;;;;;8.13;5.18;;;21.80;99.90;;;;;;5102167;28;20146;-64
2022/07/13 03:57:36;;;;;;;7.20;5.20;;;21.80;99.90;;;;;;5097436;28;20108;-64
2022/07/13 04:00:03;;;;;;;7.93;5.82;;;21.80;99.90;;;;;;5098833;28;20131;-64
2022/07/13 04:02:29;;;;;;;7.22;4.93;;;21.70;99.90;;;;;;5100866;28;20469;-64
2022/07/13 04:04:54;;;;;;;7.05;5.10;;;21.80;99.90;;;;;;5099912;28;20059;-63
2022/07/13 04:07:21;;;;;;;6.30;4.82;;;21.80;99.90;;;;;;5102760;28;20047;-64
2022/07/13 04:09:46;;;;;;;6.72;4.63;;;21.80;99.90;;;;;;5102912;28;20427;-64
2022/07/13 04:12:12;;;;;;;6.55;4.53;;;21.80;99.90;;;;;;5100664;28;20110;-64
2022/07/13 04:14:37;;;;;;;7.80;4.80;;;21.70;99.90;;;;;;5101746;28;20066;-64
2022/07/13 04:17:03;;;;;;;6.85;4.60;;;21.70;99.90;;;;;;5102682;28;20036;-63
2022/07/13 04:19:28;;;;;;;7.43;4.93;;;21.80;99.90;;;;;;5101007;28;20152;-64
2022/07/13 04:21:54;;;;;;;6.47;4.60;;;21.80;99.90;;;;;;5101442;28;20430;-64
2022/07/13 04:24:19;;;;;;;6.68;4.57;;;21.80;99.90;;;;;;5103078;28;20036;-64
2022/07/13 04:26:45;;;;;;;7.35;4.63;;;21.80;99.90;;;;;;5104688;28;20092;-64
2022/07/13 04:29:10;;;;;;;7.30;4.50;;;21.80;99.90;;;;;;5110634;28;20049;-64
2022/07/13 04:31:36;;;;;;;5.10;3.90;;;21.90;99.90;;;;;;5107502;28;20065;-64
2022/07/13 04:34:02;;;;;;;8.15;4.00;;;21.90;99.90;;;;;;5109348;28;20052;-63
2022/07/13 04:36:27;;;;;;;6.53;3.88;;;21.90;99.90;;;;;;5108476;27;20100;-64
2022/07/13 04:38:53;;;;;;;5.40;3.85;;;21.90;99.90;;;;;;5110102;28;20489;-64
2022/07/13 04:41:18;;;;;;;6.75;3.90;;;21.90;99.90;;;;;;5108991;28;20124;-63
2022/07/13 04:43:45;;;;;;;4.80;3.50;;;22.00;99.90;;;;;;5102235;28;20130;-64
2022/07/13 04:46:12;;;;;;;6.47;3.60;;;22.00;99.90;;;;;;5102482;28;20060;-64
2022/07/13 04:48:38;;;;;;;6.15;3.65;;;22.00;99.90;;;;;;5102690;28;20032;-63
2022/07/13 04:51:04;;;;;;;7.00;3.80;;;22.10;99.90;;;;;;5103985;27;20046;-63
2022/07/13 04:53:30;;;;;;;6.70;3.45;;;22.10;99.90;;;;;;5106209;27;20092;-64
2022/07/13 04:55:56;;;;;;;4.97;3.45;;;22.10;99.90;;;;;;5104922;28;20399;-65
2022/07/13 04:58:21;;;;;;;5.53;3.40;;;22.10;99.90;;;;;;5104926;28;20465;-64
2022/07/13 05:00:47;;;;;;;6.80;3.97;;;22.10;99.90;;;;;;5102809;28;20083;-65
2022/07/13 05:03:12;;;;;;;4.90;3.75;;;22.20;99.90;;;;;;5101359;28;20036;-65
2022/07/13 05:05:38;;;;;;;5.60;3.65;;;22.20;99.90;;;;;;5102747;28;20043;-65
2022/07/13 05:08:05;;;;;;;6.20;3.45;;;22.30;99.90;;;;;;5102599;28;20047;-67
2022/07/13 05:10:31;;;;;;;7.82;3.72;;;22.40;99.90;;;;;;5103714;28;21746;-65
2022/07/13 05:12:56;;;;;;;6.75;3.70;;;22.50;99.90;;;;;;5102317;28;20047;-66
2022/07/13 05:15:22;;;;;;;5.90;3.45;;;22.60;99.90;;;;;;5103743;28;20119;-66
2022/07/13 05:17:48;;;;;;;5.03;3.40;;;22.70;99.90;;;;;;5105387;28;20052;-65
2022/07/13 05:20:13;;;;;;;5.15;3.50;;;22.80;99.90;;;;;;5104146;28;20041;-66
2022/07/13 05:22:39;;;;;;;5.25;3.75;;;22.80;99.90;;;;;;5100823;28;20048;-65
2022/07/13 05:25:05;;;;;;;5.63;3.90;;;22.90;99.90;;;;;;5103595;28;20093;-66
2022/07/13 05:27:31;;;;;;;5.20;3.97;;;23.00;99.90;;;;;;5101403;28;20071;-66
2022/07/13 05:29:56;;;;;;;7.53;4.20;;;23.10;99.90;;;;;;5106106;28;20078;-66
2022/07/13 05:32:22;;;;;;;4.97;3.40;;;23.40;99.90;;;;;;5102615;28;20162;-65
2022/07/13 05:34:48;;;;;;;5.20;3.30;;;23.60;99.90;;;;;;5105937;28;20084;-65
2022/07/13 05:37:14;;;;;;;5.25;3.30;;;23.70;99.90;;;;;;5110352;28;20065;-65
2022/07/13 05:39:44;;;;;;;7.35;3.30;;;23.70;99.90;;;;;;5108361;28;20044;-65
2022/07/13 05:42:10;;;;;;;4.95;3.00;;;23.80;99.90;;;;;;5104320;27;20434;-65
2022/07/13 05:44:36;;;;;;;5.90;3.60;;;23.80;99.70;;;;;;5108998;28;20039;-65
2022/07/13 05:47:02;;;;;;;4.95;3.08;;;23.90;99.70;;;;;;5109027;28;20032;-65
2022/07/13 05:49:28;;;;;;;6.07;3.53;;;23.90;99.60;;;;;;5109014;28;20084;-65
2022/07/13 05:51:54;;;;;;;5.15;3.00;;;24.00;99.40;;;;;;5110041;28;20035;-65
2022/07/13 05:54:19;;;;;;;5.18;3.40;;;24.00;99.10;;;;;;5109923;28;20040;-65
2022/07/13 05:56:45;;;;;;;5.10;3.38;;;24.00;99.00;;;;;;5109282;28;20547;-65
2022/07/13 05:59:10;;;;;;;6.50;3.92;;;24.10;99.00;;;;;;5109174;27;20044;-64
2022/07/13 06:01:36;;;;;;;5.10;3.15;;;24.20;99.10;;;;;;5105131;28;20439;-64
2022/07/13 06:04:02;;;;;;;8.00;3.40;;;24.30;99.30;;;;;;5108722;28;20303;-65
2022/07/13 06:06:27;;;;;;;5.95;3.50;;;24.30;98.80;;;;;;5105102;28;20058;-65
2022/07/13 06:08:53;;;;;;;7.10;4.00;;;24.40;98.60;;;;;;5114773;27;20039;-67
2022/07/13 06:11:18;;;;;;;6.50;4.10;;;24.40;98.30;;;;;;5104550;28;20031;-67
2022/07/13 06:13:44;;;;;;;5.68;3.58;;;24.50;98.00;;;;;;5105661;28;20071;-66
2022/07/13 06:16:09;;;;;;;7.18;4.30;;;24.50;97.90;;;;;;5096930;28;20042;-66
2022/07/13 06:18:35;;;;;;;8.63;4.63;;;24.60;97.60;;;;;;5109488;28;20427;-66
2022/07/13 06:21:01;;;;;;;7.80;4.65;;;24.70;97.20;;;;;;5109243;28;20054;-67
2022/07/13 06:23:26;;;;;;;8.23;4.50;;;24.80;96.90;;;;;;5110314;28;20055;-67
2022/07/13 06:25:53;;;;;;;7.30;4.43;;;24.80;97.10;;;;;;5109980;28;20374;-66
2022/07/13 06:28:19;;;;;;;8.13;4.47;;;24.80;97.10;;;;;;5108902;28;20382;-66
2022/07/13 06:30:45;;;;;;;7.20;4.78;;;24.90;97.20;;;;;;5108490;28;20042;-66
2022/07/13 06:33:10;;;;;;;6.80;5.03;;;25.00;97.20;;;;;;5107814;28;20539;-67
2022/07/13 06:35:36;;;;;;;8.30;4.90;;;25.10;96.90;;;;;;5107318;28;20043;-67
2022/07/13 06:38:02;;;;;;;8.82;4.72;;;25.00;96.80;;;;;;5108192;28;20051;-67
2022/07/13 06:40:27;;;;;;;7.50;4.82;;;25.20;97.10;;;;;;5101271;28;20119;-67
2022/07/13 06:42:53;;;;;;;7.75;5.90;;;25.30;97.00;;;;;;5109376;28;20069;-66
2022/07/13 06:45:21;;;;;;;8.43;6.15;;;25.40;96.60;;;;;;5108192;28;20108;-66
2022/07/13 06:47:46;;;;;;;10.30;6.07;;;25.40;96.50;;;;;;5104166;28;20127;-66
2022/07/13 06:50:12;;;;;;;8.13;6.50;;;25.40;96.40;;;;;;5108570;28;20039;-66
2022/07/13 06:52:40;;;;;;;9.23;6.30;;;25.50;96.20;;;;;;5106108;28;20047;-66
2022/07/13 06:55:07;;;;;;;11.70;7.88;;;25.50;96.60;;;;;;5108102;28;20620;-66
2022/07/13 06:57:33;;;;;;;10.45;7.78;;;25.40;96.20;;;;;;5108603;28;20090;-66
2022/07/13 06:59:58;;;;;;;10.75;7.68;;;25.40;96.50;;;;;;5106665;28;20117;-66
2022/07/13 07:02:24;;;;;;;10.63;7.40;;;25.40;96.60;;;;;;5108994;28;20047;-66
2022/07/13 07:04:51;;;;;;;13.82;7.57;;;25.40;97.00;;;;;;5109774;28;20123;-65
2022/07/13 07:07:16;;;;;;;12.15;8.73;;;25.40;97.10;;;;;;5108975;28;20044;-66
2022/07/13 07:09:42;;;;;;;10.70;8.23;;;25.40;96.90;;;;;;5106980;28;20051;-66
2022/07/13 07:12:07;;;;;;;11.45;8.52;;;25.40;97.00;;;;;;5107508;28;20546;-66
2022/07/13 07:14:33;;;;;;;11.20;8.32;;;25.50;97.00;;;;;;5107086;28;20097;-67
2022/07/13 07:17:02;;;;;;;11.82;8.13;;;25.60;96.90;;;;;;5106799;28;20738;-65
2022/07/13 07:19:28;;;;;;;11.05;7.88;;;25.70;97.00;;;;;;5104022;28;20040;-66
2022/07/13 07:21:54;;;;;;;12.90;7.70;;;25.90;97.00;;;;;;5105507;27;20488;-66
2022/07/13 07:24:20;;;;;;;12.80;9.18;;;26.00;97.20;;;;;;5108267;28;20055;-65
2022/07/13 07:26:47;;;;;;;10.20;7.85;;;25.90;96.90;;;;;;5110265;28;20040;-66
2022/07/13 07:29:13;;;;;;;12.32;8.02;;;25.90;96.70;;;;;;5107983;28;20092;-65
2022/07/13 07:31:39;;;;;;;10.45;8.05;;;26.00;96.60;;;;;;5108813;28;20043;-66
2022/07/13 07:34:04;;;;;;;12.02;8.15;;;26.00;96.80;;;;;;5107118;28;20100;-65
2022/07/13 07:36:30;;;;;;;10.75;8.10;;;26.10;96.90;;;;;;5109764;28;20035;-65
2022/07/13 07:38:55;;;;;;;10.27;7.40;;;26.10;96.80;;;;;;5106302;28;20040;-65
2022/07/13 07:41:21;;;;;;;9.98;7.25;;;26.20;96.90;;;;;;5107372;28;20043;-65
2022/07/13 07:43:48;;;;;;;11.32;7.43;;;26.40;96.90;;;;;;5106920;28;20039;-64
2022/07/13 07:46:14;;;;;;;13.20;7.22;;;26.60;96.70;;;;;;5105017;28;20052;-63
2022/07/13 07:48:40;;;;;;;9.98;6.72;;;26.70;96.20;;;;;;5108342;28;20043;-64
2022/07/13 07:51:05;;;;;;;11.13;7.38;;;26.80;96.50;;;;;;5104358;27;20031;-64
2022/07/13 07:53:31;;;;;;;11.88;7.10;;;27.00;96.30;;;;;;5102322;28;20043;-64
2022/07/13 07:55:57;;;;;;;8.77;7.07;;;27.00;96.10;;;;;;5102401;28;20039;-64
2022/07/13 07:58:23;;;;;;;11.30;7.38;;;27.20;96.00;;;;;;5105128;28;20039;-64
2022/07/13 08:00:48;;;;;;;9.93;5.80;;;27.30;95.70;;;;;;5102239;28;20085;-64
2022/07/13 08:03:14;;;;;;;8.18;6.38;;;27.40;95.80;;;;;;5107938;28;20763;-64
2022/07/13 08:05:41;;;;;;;8.45;6.00;;;27.60;95.50;;;;;;5103820;28;20044;-64
2022/07/13 08:08:07;;;;;;;8.35;5.95;;;27.60;95.30;;;;;;5110905;28;20486;-63
2022/07/13 08:10:32;;;;;;;8.30;5.85;;;27.70;95.40;;;;;;5108111;28;20068;-64
2022/07/13 08:13:00;;;;;;;8.10;6.35;;;27.80;95.40;;;;;;5112705;28;20040;-64
2022/07/13 08:15:27;;;;;;;9.82;6.97;;;27.80;95.30;;;;;;5112256;28;20362;-64
2022/07/13 08:17:53;;;;;;;8.88;5.60;;;27.90;94.90;;;;;;5108450;28;20148;-64
2022/07/13 08:20:18;;;;;;;9.15;5.55;;;28.10;95.10;;;;;;5108274;28;20324;-64
2022/07/13 08:22:44;;;;;;;9.00;6.38;;;28.40;95.10;;;;;;5112337;28;20142;-64
2022/07/13 08:25:09;;;;;;;8.55;5.80;;;28.50;94.40;;;;;;5109033;28;20570;-64
2022/07/13 08:27:35;;;;;;;8.02;5.28;;;28.60;94.40;;;;;;5110875;28;20039;-64
2022/07/13 08:30:01;;;;;;;10.70;6.28;;;28.70;94.20;;;;;;5109545;28;20055;-64
2022/07/13 08:32:27;;;;;;;8.82;6.07;;;28.90;94.40;;;;;;5111050;28;20082;-64
2022/07/13 08:40:21;;;;;;;;;;;28.60;93.60;;;;;;5110228;28;20051;-64
2022/07/13 08:42:47;;;;;;;6.93;4.80;;;28.40;93.70;;;;;;5111967;28;19927;-63
2022/07/13 08:45:13;;;;;;;7.53;4.88;;;28.30;94.00;;;;;;5107013;28;20043;-63
2022/07/13 08:47:41;;;;;;;8.85;5.57;;;28.30;94.40;;;;;;5110398;28;20039;-63
2022/07/13 08:50:08;;;;;;;7.72;5.43;;;28.20;94.30;;;;;;5108885;28;20050;-63
2022/07/13 08:52:36;;;;;;;7.65;5.07;;;28.30;94.10;;;;;;5111289;28;20122;-63
2022/07/13 08:55:06;;;;;;;8.50;4.90;;;28.30;94.00;;;;;;5107988;28;20074;-63
2022/07/13 08:57:34;;;;;;;8.18;4.45;;;28.30;94.10;;;;;;5111399;28;20070;-63
2022/07/13 09:00:02;;;;;;;7.68;4.55;;;28.30;93.50;;;;;;5107888;28;20046;-63
2022/07/13 09:02:28;;;;;;;7.57;4.85;;;28.20;93.00;;;;;;5110343;28;20105;-63
2022/07/13 09:04:53;;;;;;;7.70;4.50;;;28.20;92.90;;;;;;5110276;28;20475;-63
2022/07/13 09:07:19;;;;;;;8.85;4.35;;;28.30;93.10;;;;;;5109383;28;20122;-63
2022/07/13 09:09:45;;;;;;;6.80;4.72;;;28.30;93.30;;;;;;5109360;28;20438;-63
2022/07/13 09:12:19;;;;;;;7.55;4.95;;;28.30;92.80;;;;;;5110414;28;20036;-63
2022/07/13 09:14:50;;;;;;;9.32;4.30;;;28.40;92.60;;;;;;5109392;28;20047;-63
2022/07/13 09:17:33;;;;;;;6.78;4.18;;;28.40;92.40;;;;;;5108090;28;20048;-63
2022/07/13 09:20:03;;;;;;;6.30;4.82;;;28.50;92.40;;;;;;5104764;28;20055;-63
2022/07/13 09:22:29;;;;;;;8.48;4.60;;;28.40;92.10;;;;;;5111695;28;20066;-63
2022/07/13 09:24:54;;;;;;;7.25;4.45;;;28.40;92.00;;;;;;5110602;28;20043;-63
2022/07/13 09:27:21;;;;;;;6.35;4.03;;;28.50;92.50;;;;;;5108453;28;20044;-63
2022/07/13 09:29:47;;;;;;;7.35;4.63;;;28.40;92.50;;;;;;5109926;28;20418;-63
2022/07/13 09:32:13;;;;;;;7.55;5.00;;;28.50;92.40;;;;;;5109783;28;20035;-63
2022/07/13 09:34:47;;;;;;;7.95;4.60;;;28.60;92.00;;;;;;5109357;28;20046;-63
2022/07/13 09:37:18;;;;;;;8.93;4.63;;;28.60;91.70;;;;;;5110873;28;20042;-63
2022/07/13 09:40:02;;;;;;;6.43;4.68;;;28.50;91.80;;;;;;5109650;28;20552;-63
2022/07/13 09:42:29;;;;;;;7.78;4.50;;;28.40;92.00;;;;;;5107572;28;20067;-63
2022/07/13 09:47:55;;;;;;;6.57;4.28;;;28.40;91.70;;;;;;5099913;28;20051;-63
2022/07/13 09:50:35;;;;;;;7.35;4.70;;;28.40;91.90;;;;;;5110032;28;20039;-63
2022/07/13 09:53:01;;;;;;;8.18;4.32;;;28.60;93.30;;;;;;5110243;28;20059;-63
2022/07/13 09:55:29;;;;;;;8.27;4.03;;;28.60;92.30;;;;;;5109525;28;20075;-63
2022/07/13 09:57:59;;;;;;;7.70;5.28;;;28.60;92.30;;;;;;5108856;28;20044;-63
2022/07/13 10:00:27;;;;;;;9.32;5.43;;;28.70;91.40;;;;;;5107806;27;20118;-63
2022/07/13 10:02:53;;;;;;;7.43;4.13;;;28.70;91.60;;;;;;5109318;28;20043;-63
2022/07/13 10:05:19;;;;;;;6.55;5.00;;;28.80;91.60;;;;;;5109446;28;20501;-63
2022/07/13 10:07:48;;;;;;;7.63;4.78;;;28.80;91.80;;;;;;5107918;28;20048;-62
2022/07/13 10:10:17;;;;;;;6.95;4.28;;;28.90;91.60;;;;;;5109118;28;20109;-62
2022/07/13 10:12:43;;;;;;;7.50;4.63;;;28.90;91.10;;;;;;5107683;28;20104;-63
2022/07/13 10:15:11;;;;;;;6.60;3.53;;;28.90;91.20;;;;;;5108000;28;20082;-63
2022/07/13 10:17:38;;;;;;;8.43;4.70;;;29.10;91.80;;;;;;5107839;28;20051;-63
2022/07/13 10:20:11;;;;;;;7.70;4.78;;;29.10;91.30;;;;;;5107701;28;20043;-63
2022/07/13 10:22:41;;;;;;;7.55;4.05;;;29.20;91.20;;;;;;5109597;28;20102;-63
2022/07/13 10:25:07;;;;;;;6.85;4.00;;;29.40;91.40;;;;;;5106653;28;20044;-63
2022/07/13 10:27:35;;;;;;;7.15;3.90;;;29.40;91.20;;;;;;5109177;28;20054;-64
2022/07/13 10:30:10;;;;;;;8.02;3.50;;;29.30;90.50;;;;;;5106217;28;20402;-64
2022/07/13 10:32:38;;;;;;;6.10;4.03;;;29.30;90.50;;;;;;5109144;28;20047;-66
2022/07/13 10:35:08;;;;;;;5.93;3.08;;;29.40;89.50;;;;;;5109848;27;20043;-66
2022/07/13 10:37:56;;;;;;;7.40;3.13;;;29.30;90.10;;;;;;5106511;28;20422;-65
2022/07/13 10:40:28;;;;;;;7.75;3.28;;;29.40;89.20;;;;;;5109299;28;20076;-65
2022/07/13 10:42:57;;;;;;;7.25;3.20;;;29.50;89.10;;;;;;5110978;28;20046;-65
2022/07/13 10:45:34;;;;;;;5.85;3.33;;;29.60;88.10;;;;;;5104362;28;20484;-64
2022/07/13 10:48:04;;;;;;;5.43;2.78;;;29.60;86.90;;;;;;5103059;28;20059;-64
2022/07/13 10:50:36;;;;;;;6.82;3.40;;;29.60;87.10;;;;;;5109747;28;20482;-64
2022/07/13 10:53:02;;;;;;;5.80;3.05;;;29.80;86.00;;;;;;5103526;27;20048;-64
2022/07/13 10:55:35;;;;;;;7.20;3.97;;;29.90;85.60;;;;;;5102720;28;20036;-65
2022/07/13 10:58:35;;;;;;;7.63;3.28;;;29.70;83.90;;;;;;5105802;28;20515;-64
2022/07/13 11:01:45;;;;;;;5.75;3.30;;;29.90;82.90;;;;;;5104526;28;20038;-64
2022/07/13 11:04:15;;;;;;;7.93;3.72;;;29.70;83.30;;;;;;5103165;28;20226;-64
2022/07/13 11:06:41;;;;;;;5.63;2.97;;;29.50;83.10;;;;;;5102501;28;20040;-64
2022/07/13 11:09:20;;;;;;;7.30;4.00;;;29.70;83.50;;;;;;5102901;28;20050;-64
2022/07/13 11:11:45;;;;;;;5.50;3.10;;;29.70;84.20;;;;;;5104370;28;20112;-64
2022/07/13 11:14:36;;;;;;;9.02;3.63;;;29.60;83.30;;;;;;5103085;28;20192;-64
2022/07/13 11:17:11;;;;;;;6.70;3.20;;;29.60;82.70;;;;;;5103657;28;20450;-65
2022/07/13 11:19:56;;;;;;;7.85;3.70;;;29.60;83.30;;;;;;5103712;28;20039;-64
2022/07/13 11:22:24;;;;;;;5.10;2.97;;;29.60;82.00;;;;;;5103683;28;20074;-64
2022/07/13 11:25:30;;;;;;;6.97;2.90;;;29.40;82.30;;;;;;5102304;28;20040;-64
2022/07/13 11:28:22;;;;;;;5.32;2.80;;;29.30;81.90;;;;;;5099307;28;20097;-64
2022/07/13 11:30:56;;;;;;;5.50;3.30;;;28.90;82.10;;;;;;5097808;27;20047;-64
2022/07/13 11:33:22;;;;;;;6.30;2.95;;;28.50;81.80;;;;;;5101299;28;20044;-64
2022/07/13 11:35:49;;;;;;;5.90;2.35;;;28.40;82.30;;;;;;5103045;28;20048;-63
2022/07/13 11:38:16;;;;;;;5.53;2.83;;;28.50;82.80;;;;;;5103373;28;20044;-64
2022/07/13 11:40:43;;;;;;;6.18;2.35;;;28.60;82.60;;;;;;5102734;28;20040;-64
2022/07/13 11:43:09;;;;;;;5.45;2.20;;;28.70;81.60;;;;;;5103366;28;20498;-64
2022/07/13 11:45:34;;;;;;;5.55;2.40;;;28.70;79.50;;;;;;5099892;28;20048;-64
2022/07/13 11:48:05;;;;;;;6.88;2.20;;;28.90;78.70;;;;;;5104072;28;20042;-64
2022/07/13 11:50:48;;;;;;;6.38;2.33;;;29.20;77.20;;;;;;5105329;28;20043;-64
2022/07/13 11:53:24;;;;;;;3.72;2.28;;;29.40;77.30;;;;;;5103372;28;20049;-64
2022/07/13 11:55:51;;;;;;;6.68;1.80;;;29.60;75.80;;;;;;5105705;28;20540;-64
2022/07/13 11:58:25;;;;;;;4.63;2.20;;;29.80;77.40;;;;;;5108321;28;20032;-64
2022/07/13 12:00:51;;;;;;;5.30;2.35;;;30.00;75.70;;;;;;5105696;28;20104;-64
2022/07/13 12:03:28;;;;;;;5.55;2.95;;;30.10;76.10;;;;;;5106775;28;20561;-64
2022/07/13 12:06:16;;;;;;;3.47;2.30;;;30.10;76.50;;;;;;5107354;28;20043;-64
2022/07/13 12:08:43;;;;;;;8.00;2.78;;;30.20;76.70;;;;;;5107704;28;20043;-64
2022/07/13 12:11:16;;;;;;;5.97;3.35;;;30.30;77.10;;;;;;5106485;28;20439;-64
2022/07/13 12:13:43;;;;;;;5.50;2.90;;;30.00;77.60;;;;;;5107040;28;20447;-64
2022/07/13 12:16:11;;;;;;;7.78;2.63;;;29.90;77.20;;;;;;5103934;28;20067;-64
2022/07/13 12:18:56;;;;;;;8.65;2.80;;;29.90;78.30;;;;;;5108328;28;20546;-64
2022/07/13 12:21:22;;;;;;;6.22;2.75;;;30.00;78.60;;;;;;5105804;28;20058;-64
2022/07/13 12:23:48;;;;;;;5.07;2.63;;;30.10;78.30;;;;;;5102301;28;20056;-63
2022/07/13 12:26:14;;;;;;;3.90;2.00;;;30.20;76.50;;;;;;5104431;28;20040;-63
2022/07/13 12:28:43;;;;;;;5.38;2.45;;;30.30;74.30;;;;;;5108802;28;20050;-63
2022/07/13 12:31:09;;;;;;;5.55;2.67;;;30.10;73.20;;;;;;5107032;28;20493;-63
2022/07/13 12:33:43;;;;;;;4.18;2.30;;;30.10;73.40;;;;;;5104865;28;20075;-64
2022/07/13 12:36:10;;;;;;;4.82;2.50;;;30.10;72.50;;;;;;5108730;28;20048;-63
2022/07/13 12:38:51;;;;;;;5.47;2.42;;;29.90;72.60;;;;;;5108657;28;20039;-63
2022/07/13 12:41:42;;;;;;;4.47;2.47;;;29.70;72.70;;;;;;5107846;28;20420;-63
2022/07/13 12:44:09;;;;;;;4.85;2.30;;;29.50;72.50;;;;;;5099743;28;20442;-63
2022/07/13 12:47:07;;;;;;;5.63;2.20;;;29.30;71.70;;;;;;5107165;28;20120;-63
2022/07/13 12:49:39;;;;;;;4.47;2.20;;;29.30;72.50;;;;;;5081359;28;20052;-63
2022/07/13 12:52:10;;;;;;;5.10;2.00;;;29.10;73.90;;;;;;5104496;28;20398;-63
2022/07/13 12:54:48;;;;;;;7.10;2.40;;;29.20;73.00;;;;;;5098036;28;20237;-63
2022/07/13 12:57:25;;;;;;;4.93;2.13;;;29.30;70.50;;;;;;5112268;27;20081;-63